Time;durP1;ratioP1;P1;durP2;ratioP2;P2;SDS_P1;SDS_P2;PMS_P1;PMS_P2;Temp;Humidity;BMP_temperature;BMP_pressure;BME280_temperature;BME280_humidity;BME280_pressure;Samples;Min_cycle;Max_cycle;Signal;HPM_P1;HPM_P2
2022/03/08 00:01:49;;;;;;;23.38;10.38;;;;;;;0.58;86.22;102443.03;5072880;28;20068;-64
2022/03/08 00:04:17;;;;;;;18.02;10.00;;;;;;;0.54;86.53;102436.13;5072988;28;20059;-64
2022/03/08 00:06:45;;;;;;;18.13;9.82;;;;;;;0.52;86.65;102432.66;5071484;28;20045;-63
2022/03/08 00:09:13;;;;;;;17.67;9.27;;;;;;;0.48;86.41;102431.78;5072968;28;20053;-64
2022/03/08 00:11:43;;;;;;;17.08;10.07;;;;;;;0.46;86.79;102429.22;5071157;28;20056;-64
2022/03/08 00:14:11;;;;;;;18.83;9.93;;;;;;;0.43;86.65;102433.50;5073143;28;20052;-64
2022/03/08 00:16:39;;;;;;;19.60;10.30;;;;;;;0.42;86.61;102431.75;5072677;28;20086;-63
2022/03/08 00:19:08;;;;;;;22.77;10.70;;;;;;;0.42;86.35;102432.63;5071630;28;20048;-64
2022/03/08 00:21:36;;;;;;;17.30;9.68;;;;;;;0.38;86.32;102424.84;5072864;28;20505;-63
2022/03/08 00:24:05;;;;;;;19.50;10.13;;;;;;;0.45;86.16;102422.28;5072875;28;20044;-64
2022/03/08 00:26:33;;;;;;;17.67;9.48;;;;;;;0.37;86.22;102418.81;5072555;28;20490;-64
2022/03/08 00:29:02;;;;;;;18.33;10.05;;;;;;;0.38;86.09;102419.69;5072512;28;20048;-64
2022/03/08 00:31:30;;;;;;;19.38;10.95;;;;;;;0.29;86.56;102410.19;5072638;28;20131;-64
2022/03/08 00:33:58;;;;;;;20.52;9.82;;;;;;;0.29;86.55;102412.75;5072512;28;20496;-63
2022/03/08 00:36:27;;;;;;;22.08;10.68;;;;;;;0.22;86.47;102414.47;5072357;28;20056;-64
2022/03/08 00:38:55;;;;;;;19.05;9.60;;;;;;;0.27;86.28;102412.75;5072305;28;20087;-64
2022/03/08 00:41:23;;;;;;;17.80;9.38;;;;;;;0.23;86.19;102411.03;5072410;28;20109;-64
2022/03/08 00:43:51;;;;;;;16.27;8.85;;;;;;;0.23;85.55;102412.72;5072454;28;20059;-63
2022/03/08 00:46:21;;;;;;;17.13;10.00;;;;;;;0.20;85.93;102408.41;5072529;28;20044;-63
2022/03/08 00:48:50;;;;;;;17.20;9.73;;;;;;;0.16;85.89;102409.25;5072506;28;20102;-63
2022/03/08 00:51:18;;;;;;;17.35;10.02;;;;;;;0.14;86.08;102403.22;5072259;28;20044;-64
2022/03/08 00:53:48;;;;;;;17.95;9.10;;;;;;;0.06;86.33;102403.19;5072144;28;20048;-63
2022/03/08 00:56:16;;;;;;;17.60;9.82;;;;;;;0.08;86.22;102393.72;5071460;28;20056;-63
2022/03/08 00:58:44;;;;;;;16.58;9.43;;;;;;;0.12;86.05;102400.63;5071886;28;20059;-63
2022/03/08 01:01:13;;;;;;;17.20;9.60;;;;;;;0.07;85.82;102396.28;5072139;28;20052;-58
2022/03/08 01:03:43;;;;;;;17.63;9.57;;;;;;;0.10;85.82;102393.72;5072172;28;20139;-63
2022/03/08 01:06:12;;;;;;;18.55;9.75;;;;;;;0.02;85.93;102382.50;5071960;28;20060;-58
2022/03/08 01:08:40;;;;;;;19.02;9.95;;;;;;;-0.01;86.21;102385.94;5072272;28;20098;-63
2022/03/08 01:11:08;;;;;;;18.40;9.65;;;;;;;-0.04;85.98;102383.31;5072388;28;20064;-63
2022/03/08 01:13:36;;;;;;;18.70;9.20;;;;;;;-0.11;86.39;102381.56;5072034;28;20045;-63
2022/03/08 01:16:05;;;;;;;17.70;8.82;;;;;;;-0.12;86.14;102379.81;5071882;28;20056;-63
2022/03/08 01:18:33;;;;;;;18.17;9.30;;;;;;;-0.12;86.16;102383.28;5071946;28;20077;-63
2022/03/08 01:21:03;;;;;;;18.33;8.65;;;;;;;-0.14;86.04;102381.56;5071958;28;20098;-57
2022/03/08 01:23:31;;;;;;;16.58;8.95;;;;;;;-0.21;86.25;102386.69;5071779;28;20040;-57
2022/03/08 01:25:59;;;;;;;15.65;8.40;;;;;;;-0.22;86.31;102384.97;5071892;28;20052;-58
2022/03/08 01:28:28;;;;;;;16.42;8.98;;;;;;;-0.20;86.18;102385.84;5071888;28;20368;-58
2022/03/08 01:30:56;;;;;;;16.83;9.13;;;;;;;-0.23;86.07;102378.06;5070493;28;20056;-58
2022/03/08 01:33:24;;;;;;;14.57;9.20;;;;;;;-0.20;85.96;102369.47;5071974;28;20045;-58
2022/03/08 01:35:52;;;;;;;14.93;8.18;;;;;;;-0.24;85.68;102378.06;5071835;28;20098;-58
2022/03/08 01:38:21;;;;;;;16.88;8.73;;;;;;;-0.22;85.65;102377.22;5071822;28;20037;-58
2022/03/08 01:40:49;;;;;;;17.52;8.40;;;;;;;-0.22;85.19;102376.34;5071599;28;20056;-59
2022/03/08 01:43:17;;;;;;;14.75;7.75;;;;;;;-0.21;85.04;102368.59;5071692;28;20052;-58
2022/03/08 01:45:46;;;;;;;14.68;8.75;;;;;;;-0.25;84.80;102369.44;5071513;28;20051;-63
2022/03/08 01:48:16;;;;;;;13.25;8.18;;;;;;;-0.30;85.20;102357.34;5071738;28;20068;-58
2022/03/08 01:50:44;;;;;;;13.48;7.75;;;;;;;-0.29;85.03;102354.75;5071813;28;20048;-57
2022/03/08 01:53:13;;;;;;;15.40;8.55;;;;;;;-0.30;84.93;102352.16;5071758;28;20510;-63
2022/03/08 01:55:43;;;;;;;16.15;8.50;;;;;;;-0.29;84.87;102349.59;5104158;28;20431;-63
2022/03/08 01:58:16;;;;;;;16.88;8.48;;;;;;;-0.36;84.68;102348.69;5071557;28;20052;-63
2022/03/08 02:00:44;;;;;;;14.77;8.48;;;;;;;-0.43;84.76;102339.19;5071757;28;20513;-58
2022/03/08 02:03:13;;;;;;;14.45;8.18;;;;;;;-0.40;84.56;102354.72;5071662;28;20060;-63
2022/03/08 02:05:41;;;;;;;13.20;7.55;;;;;;;-0.43;84.40;102344.38;5071664;28;20082;-57
2022/03/08 02:08:10;;;;;;;14.57;7.47;;;;;;;-0.44;84.34;102344.34;5072665;28;20053;-58
2022/03/08 02:10:38;;;;;;;13.60;7.35;;;;;;;-0.49;84.32;102349.53;5075056;28;20053;-58
2022/03/08 02:13:07;;;;;;;14.40;8.25;;;;;;;-0.52;84.11;102334.84;5075039;28;20052;-57
2022/03/08 02:15:35;;;;;;;16.30;7.93;;;;;;;-0.52;84.05;102328.81;5075109;28;20530;-57
2022/03/08 02:18:04;;;;;;;12.32;7.22;;;;;;;-0.53;83.76;102335.72;5074947;28;20045;-63
2022/03/08 02:20:32;;;;;;;13.95;7.60;;;;;;;-0.45;83.08;102327.13;5074946;28;20059;-57
2022/03/08 02:23:02;;;;;;;13.20;7.43;;;;;;;-0.49;83.24;102327.97;5073540;28;20048;-63
2022/03/08 02:25:30;;;;;;;13.35;7.00;;;;;;;-0.56;83.12;102319.31;5074925;28;20053;-63
2022/03/08 02:27:58;;;;;;;12.73;7.30;;;;;;;-0.64;83.33;102321.00;5074859;28;20105;-62
2022/03/08 02:30:27;;;;;;;13.38;6.65;;;;;;;-0.64;83.39;102313.25;5074816;28;20176;-63
2022/03/08 02:32:56;;;;;;;16.52;7.65;;;;;;;-0.63;83.12;102308.06;5074839;28;20461;-63
2022/03/08 02:35:26;;;;;;;11.82;7.03;;;;;;;-0.57;82.08;102313.28;5073348;28;20041;-63
2022/03/08 02:37:56;;;;;;;11.52;6.47;;;;;;;-0.62;82.18;102309.81;5074729;28;20365;-57
2022/03/08 02:40:28;;;;;;;13.20;7.15;;;;;;;-0.68;82.02;102297.72;5074556;28;20055;-63
2022/03/08 02:42:56;;;;;;;13.38;7.22;;;;;;;-0.66;82.49;102310.66;5074761;28;20063;-58
2022/03/08 02:45:24;;;;;;;13.43;6.40;;;;;;;-0.69;82.23;102301.16;5074554;28;20408;-62
2022/03/08 02:47:52;;;;;;;13.40;6.75;;;;;;;-0.73;82.00;102306.31;5074686;28;20045;-63
2022/03/08 02:50:21;;;;;;;11.70;6.68;;;;;;;-0.74;82.11;102307.16;5074418;28;20059;-57
2022/03/08 02:52:52;;;;;;;13.35;6.68;;;;;;;-0.71;81.80;102302.00;5074520;28;20041;-61
2022/03/08 02:55:21;;;;;;;10.90;6.13;;;;;;;-0.73;81.61;102306.31;5074551;28;20119;-57
2022/03/08 02:57:52;;;;;;;15.63;6.50;;;;;;;-0.79;81.68;102303.69;5074484;28;20476;-58
2022/03/08 03:00:21;;;;;;;12.60;6.80;;;;;;;-0.81;81.24;102295.94;5074203;28;20414;-57
2022/03/08 03:02:50;;;;;;;12.10;6.32;;;;;;;-0.77;81.46;102305.41;5073017;28;20049;-63
2022/03/08 03:05:18;;;;;;;12.85;6.25;;;;;;;-0.81;81.73;102306.25;5074535;28;20087;-64
2022/03/08 03:07:46;;;;;;;10.27;5.78;;;;;;;-0.84;81.78;102303.66;5074058;28;20059;-58
2022/03/08 03:10:16;;;;;;;13.20;6.28;;;;;;;-0.88;81.68;102300.19;5074299;28;20048;-64
2022/03/08 03:12:45;;;;;;;14.43;6.20;;;;;;;-0.88;81.58;102297.59;5074133;28;20036;-64
2022/03/08 03:15:16;;;;;;;11.05;5.90;;;;;;;-0.87;81.59;102296.75;5074313;28;20047;-64
2022/03/08 03:17:44;;;;;;;15.30;6.50;;;;;;;-0.92;81.77;102301.03;5074144;28;20055;-63
2022/03/08 03:20:14;;;;;;;14.05;6.07;;;;;;;-0.94;81.86;102294.13;5071486;28;20044;-64
2022/03/08 03:22:43;;;;;;;12.90;6.05;;;;;;;-0.93;81.64;102288.97;5073928;28;20044;-59
2022/03/08 03:25:12;;;;;;;12.63;6.68;;;;;;;-0.91;81.29;102297.59;5073916;28;20139;-59
2022/03/08 03:27:41;;;;;;;13.90;6.38;;;;;;;-0.95;81.71;102295.00;5072441;28;20546;-63
2022/03/08 03:30:11;;;;;;;11.07;6.22;;;;;;;-0.97;81.65;102294.13;5073699;28;20044;-58
2022/03/08 03:32:41;;;;;;;13.68;6.20;;;;;;;-1.02;81.64;102287.19;5073578;28;20361;-63
2022/03/08 03:35:11;;;;;;;11.93;5.93;;;;;;;-1.00;81.78;102287.22;5072456;28;20047;-57
2022/03/08 03:37:39;;;;;;;11.13;5.80;;;;;;;-0.98;81.72;102282.03;5073739;28;20056;-62
2022/03/08 03:40:09;;;;;;;16.58;6.53;;;;;;;-0.94;81.48;102282.09;5073585;28;20048;-62
2022/03/08 03:42:37;;;;;;;11.50;5.82;;;;;;;-0.92;81.24;102288.13;5073153;28;20052;-55
2022/03/08 03:45:06;;;;;;;10.98;5.65;;;;;;;-1.00;81.61;102286.34;5073395;28;20052;-62
2022/03/08 03:47:35;;;;;;;12.45;6.55;;;;;;;-1.01;81.52;102280.31;5073534;28;20040;-57
2022/03/08 03:50:05;;;;;;;11.57;5.22;;;;;;;-1.05;81.57;102294.06;5073316;28;20051;-56
2022/03/08 03:52:33;;;;;;;14.10;6.05;;;;;;;-1.09;81.72;102285.44;5073193;28;20049;-58
2022/03/08 03:55:01;;;;;;;12.20;6.45;;;;;;;-1.08;81.96;102286.28;5073310;28;20371;-58
2022/03/08 03:57:29;;;;;;;12.18;6.15;;;;;;;-1.07;81.64;102281.13;5073233;28;20052;-58
2022/03/08 03:59:58;;;;;;;12.65;6.40;;;;;;;-1.07;81.76;102283.72;5072907;28;20601;-62
2022/03/08 04:02:26;;;;;;;11.45;5.95;;;;;;;-1.09;81.44;102282.88;5072871;28;20052;-59
2022/03/08 04:04:54;;;;;;;10.98;6.03;;;;;;;-1.11;81.88;102278.53;5073004;28;20446;-62
2022/03/08 04:07:23;;;;;;;9.48;6.15;;;;;;;-1.05;81.46;102273.41;5072858;28;20061;-58
2022/03/08 04:09:52;;;;;;;11.02;5.68;;;;;;;-1.09;81.75;102277.69;5072787;28;20522;-63
2022/03/08 04:12:20;;;;;;;10.00;5.32;;;;;;;-1.05;81.54;102273.41;5072776;28;20429;-62
2022/03/08 04:14:48;;;;;;;10.65;6.00;;;;;;;-1.12;81.89;102274.22;5072641;28;20440;-58
2022/03/08 04:17:16;;;;;;;11.27;5.85;;;;;;;-1.10;81.77;102275.09;5072482;28;20056;-57
2022/03/08 04:19:44;;;;;;;10.52;5.78;;;;;;;-1.16;81.65;102260.41;5072384;28;20032;-57
2022/03/08 04:22:12;;;;;;;9.82;5.47;;;;;;;-1.09;81.40;102262.19;5072098;28;20499;-57
2022/03/08 04:24:42;;;;;;;10.10;5.80;;;;;;;-1.21;81.81;102262.97;5072245;28;20052;-56
2022/03/08 04:27:10;;;;;;;9.98;5.60;;;;;;;-1.19;81.88;102262.97;5071262;28;20053;-55
2022/03/08 04:29:38;;;;;;;9.45;5.38;;;;;;;-1.16;81.98;102249.22;5072320;28;20094;-57
2022/03/08 04:32:07;;;;;;;11.63;5.45;;;;;;;-1.18;81.94;102256.13;5072194;28;20052;-58
2022/03/08 04:34:35;;;;;;;11.68;6.10;;;;;;;-1.11;81.48;102252.72;5072268;28;20483;-58
2022/03/08 04:37:04;;;;;;;11.13;5.72;;;;;;;-1.13;81.69;102254.41;5072369;28;20388;-57
2022/03/08 04:39:32;;;;;;;11.88;6.00;;;;;;;-1.17;81.45;102258.72;5072365;28;20055;-58
2022/03/08 04:42:02;;;;;;;13.45;5.88;;;;;;;-1.16;81.20;102259.56;5072478;28;20040;-64
2022/03/08 04:44:30;;;;;;;13.85;5.80;;;;;;;-1.19;81.36;102250.06;5072429;28;20384;-56
2022/03/08 04:46:58;;;;;;;11.27;5.20;;;;;;;-1.18;81.15;102254.38;5072398;28;20459;-64
2022/03/08 04:49:26;;;;;;;14.52;6.10;;;;;;;-1.17;81.60;102257.81;5072577;28;20045;-63
2022/03/08 04:51:54;;;;;;;9.75;4.72;;;;;;;-1.21;81.17;102254.38;5072458;28;20041;-63
2022/03/08 04:54:22;;;;;;;11.13;5.57;;;;;;;-1.11;80.61;102260.47;5072530;28;20044;-62
2022/03/08 04:56:50;;;;;;;11.52;5.95;;;;;;;-1.15;81.03;102258.72;5072460;28;20101;-62
2022/03/08 04:59:20;;;;;;;10.88;5.47;;;;;;;-1.10;80.70;102259.63;5072230;28;20052;-62
2022/03/08 05:01:49;;;;;;;10.93;5.47;;;;;;;-1.10;80.56;102259.63;5072125;28;20040;-62
2022/03/08 05:04:17;;;;;;;11.25;5.50;;;;;;;-1.08;80.19;102251.03;5072266;28;20053;-63
2022/03/08 05:06:47;;;;;;;11.93;6.13;;;;;;;-1.12;80.45;102254.41;5071952;28;20052;-62
2022/03/08 05:09:15;;;;;;;9.75;5.15;;;;;;;-1.15;80.46;102250.97;5072594;28;20348;-64
2022/03/08 05:11:43;;;;;;;10.73;6.13;;;;;;;-1.14;80.30;102252.72;5072093;28;20052;-62
2022/03/08 05:14:11;;;;;;;11.32;6.03;;;;;;;-1.22;80.88;102240.59;5072168;28;20052;-62
2022/03/08 05:16:41;;;;;;;10.27;5.47;;;;;;;-1.20;81.08;102249.22;5072280;28;20046;-62
2022/03/08 05:19:10;;;;;;;13.13;5.53;;;;;;;-1.24;81.09;102250.06;5072173;28;20045;-62
2022/03/08 05:21:38;;;;;;;12.93;5.88;;;;;;;-1.27;81.16;102242.31;5072172;28;20125;-64
2022/03/08 05:24:06;;;;;;;10.00;5.32;;;;;;;-1.23;81.38;102251.78;5071892;28;20044;-62
2022/03/08 05:26:37;;;;;;;12.30;5.97;;;;;;;-1.20;81.17;102249.22;5071814;28;20055;-62
2022/03/08 05:29:05;;;;;;;11.60;5.75;;;;;;;-1.24;81.47;102246.59;5069456;28;20044;-62
2022/03/08 05:31:34;;;;;;;11.13;6.18;;;;;;;-1.28;81.70;102250.88;5070688;28;20106;-63
2022/03/08 05:34:04;;;;;;;13.40;5.78;;;;;;;-1.16;81.12;102247.50;5072027;28;20044;-63
2022/03/08 05:36:33;;;;;;;10.48;5.63;;;;;;;-1.19;81.46;102247.50;5071971;28;20053;-62
2022/03/08 05:39:01;;;;;;;12.77;5.72;;;;;;;-1.18;81.93;102243.22;5070667;28;20442;-64
2022/03/08 05:41:29;;;;;;;11.65;6.00;;;;;;;-1.21;81.55;102237.16;5053943;28;20407;-63
2022/03/08 05:43:57;;;;;;;10.77;5.90;;;;;;;-1.11;81.12;102237.22;5054579;28;20385;-57
2022/03/08 05:46:25;;;;;;;11.40;6.40;;;;;;;-1.20;81.71;102238.91;5074425;28;20046;-57
2022/03/08 05:48:53;;;;;;;12.57;6.35;;;;;;;-1.25;81.50;102238.00;5075654;28;20578;-62
2022/03/08 05:51:23;;;;;;;11.57;6.28;;;;;;;-1.29;81.84;102243.16;5075643;28;20487;-61
2022/03/08 05:53:51;;;;;;;12.77;6.38;;;;;;;-1.25;82.10;102248.31;5075421;28;20071;-56
2022/03/08 05:56:19;;;;;;;11.55;5.85;;;;;;;-1.23;82.13;102251.78;5075382;28;20131;-57
2022/03/08 05:58:47;;;;;;;13.25;6.35;;;;;;;-1.21;81.44;102252.66;5075385;28;20048;-62
2022/03/08 06:01:15;;;;;;;13.13;6.28;;;;;;;-1.23;81.64;102248.31;5075550;28;20475;-62
2022/03/08 06:03:43;;;;;;;14.48;6.57;;;;;;;-1.26;81.60;102238.84;5075303;28;20049;-57
2022/03/08 06:06:12;;;;;;;10.90;6.32;;;;;;;-1.28;82.43;102245.72;5075236;28;20048;-61
2022/03/08 06:08:42;;;;;;;12.07;6.13;;;;;;;-1.28;81.86;102247.44;5075211;28;20048;-57
2022/03/08 06:11:10;;;;;;;11.73;6.53;;;;;;;-1.25;81.94;102250.06;5075147;28;20492;-57
2022/03/08 06:13:38;;;;;;;11.98;6.93;;;;;;;-1.25;82.05;102240.56;5074946;28;20062;-56
2022/03/08 06:16:06;;;;;;;12.23;7.50;;;;;;;-1.26;81.72;102245.72;5075150;28;20394;-62
2022/03/08 06:18:34;;;;;;;10.88;6.60;;;;;;;-1.21;81.58;102252.66;5073494;28;20072;-57
2022/03/08 06:21:03;;;;;;;11.60;6.40;;;;;;;-1.11;81.11;102252.72;5075053;28;20442;-58
2022/03/08 06:23:31;;;;;;;12.20;6.00;;;;;;;-1.16;80.81;102256.97;5074839;28;20079;-63
2022/03/08 06:26:00;;;;;;;12.07;6.50;;;;;;;-1.16;80.88;102256.97;5075020;28;20447;-62
2022/03/08 06:28:30;;;;;;;12.35;6.03;;;;;;;-1.16;81.12;102260.41;5074816;28;20037;-63
2022/03/08 06:30:59;;;;;;;11.98;6.25;;;;;;;-1.20;81.16;102258.66;5074770;28;20061;-57
2022/03/08 06:33:27;;;;;;;12.55;6.30;;;;;;;-1.19;81.49;102262.97;5074856;28;20044;-57
2022/03/08 06:35:55;;;;;;;11.65;6.38;;;;;;;-1.16;81.25;102263.00;5074646;28;20040;-57
2022/03/08 06:38:24;;;;;;;11.98;5.85;;;;;;;-1.11;81.10;102268.22;5074548;28;20105;-63
2022/03/08 06:40:52;;;;;;;14.13;6.72;;;;;;;-1.16;81.37;102264.72;5074635;28;20040;-63
2022/03/08 06:43:22;;;;;;;12.18;6.78;;;;;;;-1.15;81.28;102266.47;5074593;28;20064;-57
2022/03/08 06:45:50;;;;;;;11.55;6.35;;;;;;;-1.08;81.36;102266.53;5074270;28;20044;-62
2022/03/08 06:48:18;;;;;;;10.23;6.32;;;;;;;-1.09;81.38;102254.47;5074418;28;20057;-57
2022/03/08 06:50:46;;;;;;;11.18;6.65;;;;;;;-1.01;80.63;102262.22;5074413;28;20048;-63
2022/03/08 06:53:14;;;;;;;11.68;6.20;;;;;;;-1.03;nan;102266.53;5074334;28;20068;-63
2022/03/08 06:55:42;;;;;;;13.07;7.15;;;;;;;-1.00;80.92;102279.47;5074235;28;20040;-63
2022/03/08 06:58:10;;;;;;;11.77;6.47;;;;;;;-1.00;80.75;102271.72;5074094;28;20052;-63
2022/03/08 07:00:40;;;;;;;11.88;6.30;;;;;;;-0.96;80.59;102273.47;5074094;28;20375;-57
2022/03/08 07:03:08;;;;;;;13.45;6.65;;;;;;;-0.91;80.41;102281.25;5072688;28;20059;-58
2022/03/08 07:05:38;;;;;;;12.57;6.82;;;;;;;-0.91;79.89;102276.94;5074088;28;20045;-63
2022/03/08 07:08:06;;;;;;;15.10;6.38;;;;;;;-0.87;80.22;102267.50;5074174;28;20056;-57
2022/03/08 07:10:35;;;;;;;10.48;6.22;;;;;;;-0.79;79.95;102273.56;5074081;28;20040;-62
2022/03/08 07:13:03;;;;;;;12.77;6.47;;;;;;;-0.75;79.79;102267.56;5073793;28;20044;-57
2022/03/08 07:15:32;;;;;;;12.35;6.18;;;;;;;-0.68;79.77;102266.72;5072621;28;20072;-57
2022/03/08 07:18:02;;;;;;;12.32;6.20;;;;;;;-0.60;79.52;102271.94;5073795;28;20044;-57
2022/03/08 07:20:30;;;;;;;12.45;6.43;;;;;;;-0.43;78.73;102273.72;5073890;28;20557;-63
2022/03/08 07:22:58;;;;;;;10.73;6.20;;;;;;;-0.30;78.25;102283.25;5073934;28;20052;-63
2022/03/08 07:25:26;;;;;;;17.08;7.15;;;;;;;-0.24;78.08;102272.91;5073924;28;20045;-63
2022/03/08 07:27:55;;;;;;;12.40;6.72;;;;;;;-0.19;78.54;102278.09;5073756;28;20730;-59
2022/03/08 07:30:43;;;;;;;12.90;6.28;;;;;;;-0.04;78.14;102272.97;5073788;28;20048;-63
2022/03/08 07:33:13;;;;;;;10.55;6.10;;;;;;;0.16;76.75;102275.59;5073639;28;20059;-57
2022/03/08 07:35:41;;;;;;;11.02;6.78;;;;;;;0.13;77.53;102283.31;5073611;28;20052;-63
2022/03/08 07:38:09;;;;;;;15.70;6.60;;;;;;;0.36;77.19;102279.03;5073643;28;20045;-57
2022/03/08 07:40:37;;;;;;;11.63;6.78;;;;;;;0.52;76.56;102280.78;5073465;28;20436;-63
2022/03/08 07:43:05;;;;;;;11.20;5.93;;;;;;;0.69;75.65;102262.63;5073463;28;20106;-58
2022/03/08 07:45:35;;;;;;;10.80;6.30;;;;;;;0.91;75.58;102272.94;5073387;28;20097;-57
2022/03/08 07:48:04;;;;;;;12.00;6.35;;;;;;;0.94;74.56;102270.34;5073389;28;20048;-63
2022/03/08 07:50:35;;;;;;;11.45;5.80;;;;;;;1.15;75.05;102272.88;5073391;28;20040;-57
2022/03/08 07:53:04;;;;;;;11.52;5.80;;;;;;;1.35;74.34;102275.41;5073451;28;20048;-62
2022/03/08 07:55:32;;;;;;;10.82;6.53;;;;;;;1.59;73.60;102281.34;5073495;28;20570;-57
2022/03/08 07:58:03;;;;;;;13.35;6.43;;;;;;;1.66;72.66;102274.41;5073233;28;20503;-63
2022/03/08 08:00:33;;;;;;;13.65;6.65;;;;;;;2.01;72.10;102271.59;5073426;28;20044;-57
2022/03/08 08:03:03;;;;;;;12.93;6.32;;;;;;;2.11;71.10;102285.38;5073124;28;20055;-58
2022/03/08 08:05:33;;;;;;;13.15;6.45;;;;;;;2.32;71.01;102279.19;5072563;28;20040;-58
2022/03/08 08:08:04;;;;;;;11.60;6.03;;;;;;;2.59;70.36;102282.44;5072956;28;20063;-63
2022/03/08 08:10:32;;;;;;;12.02;6.35;;;;;;;2.67;68.84;102279.75;5073116;28;20492;-61
2022/03/08 08:13:01;;;;;;;11.07;6.07;;;;;;;2.84;68.46;102282.22;5073069;28;20048;-63
2022/03/08 08:15:29;;;;;;;11.52;6.35;;;;;;;3.09;68.21;102280.22;5072860;28;20388;-62
2022/03/08 08:17:57;;;;;;;11.00;5.80;;;;;;;3.38;67.00;102279.00;5072848;28;20047;-63
2022/03/08 08:20:26;;;;;;;10.20;5.78;;;;;;;3.54;65.26;102280.56;5073054;28;20071;-57
2022/03/08 08:22:54;;;;;;;12.57;6.20;;;;;;;3.81;64.71;102288.88;5072676;28;20048;-66
2022/03/08 08:25:24;;;;;;;10.35;5.78;;;;;;;3.92;64.84;102288.72;5072728;28;20046;-63
2022/03/08 08:27:52;;;;;;;10.27;5.38;;;;;;;4.02;63.21;102276.41;5072634;28;20090;-64
2022/03/08 08:30:20;;;;;;;9.30;5.18;;;;;;;4.08;62.26;102278.94;5072642;28;20053;-58
2022/03/08 08:32:50;;;;;;;10.57;5.63;;;;;;;4.18;62.12;102277.06;5072706;28;20047;-65
2022/03/08 08:35:19;;;;;;;8.85;4.85;;;;;;;4.45;60.46;102280.97;5072594;28;20123;-59
2022/03/08 08:37:47;;;;;;;9.50;5.00;;;;;;;4.60;58.92;102279.00;5072740;28;20162;-57
2022/03/08 08:40:17;;;;;;;10.05;5.38;;;;;;;4.71;58.14;102267.47;5072785;28;20048;-64
2022/03/08 08:42:46;;;;;;;9.60;5.00;;;;;;;5.00;58.90;102271.28;5072680;28;20049;-59
2022/03/08 08:45:15;;;;;;;9.93;5.20;;;;;;;5.23;57.57;102259.56;5072508;28;20457;-65
2022/03/08 08:47:43;;;;;;;10.05;5.28;;;;;;;5.15;55.85;102267.53;5072528;28;20094;-59
2022/03/08 08:50:11;;;;;;;9.43;4.70;;;;;;;5.29;54.22;102258.56;5072567;28;20056;-59
2022/03/08 08:52:39;;;;;;;9.38;5.25;;;;;;;5.40;54.37;102254.88;5072515;28;20044;-59
2022/03/08 08:55:08;;;;;;;9.10;4.82;;;;;;;5.53;53.64;102246.78;5072281;28;20044;-64
2022/03/08 08:57:37;;;;;;;9.63;4.80;;;;;;;5.67;52.54;102251.69;5072509;28;20060;-58
2022/03/08 09:00:08;;;;;;;9.02;5.00;;;;;;;5.92;52.83;102247.63;5072191;28;20055;-65
2022/03/08 09:02:40;;;;;;;11.68;5.18;;;;;;;6.05;52.42;102248.25;5072224;28;20372;-63
2022/03/08 09:05:09;;;;;;;9.73;5.20;;;;;;;6.21;51.76;102253.09;5072205;28;20075;-59
2022/03/08 09:07:38;;;;;;;8.82;4.95;;;;;;;6.39;51.41;102244.81;5071863;28;20068;-64
2022/03/08 09:10:07;;;;;;;8.40;4.57;;;;;;;6.63;51.08;102242.47;5072196;28;20040;-59
2022/03/08 09:12:35;;;;;;;8.15;4.97;;;;;;;6.75;49.48;102236.06;5072001;28;20063;-59
2022/03/08 09:15:04;;;;;;;9.20;4.82;;;;;;;6.73;48.40;102237.84;5072082;28;20044;-60
2022/03/08 09:17:34;;;;;;;8.15;5.05;;;;;;;6.94;48.36;102229.41;5071232;28;20049;-65
2022/03/08 09:20:02;;;;;;;8.38;4.93;;;;;;;7.20;49.34;102230.44;5072008;28;20040;-65
2022/03/08 09:22:30;;;;;;;9.52;4.90;;;;;;;6.92;48.08;102227.72;5072081;28;20064;-64
2022/03/08 09:24:58;;;;;;;10.18;5.05;;;;;;;6.93;47.88;102213.75;5071990;28;20048;-64
2022/03/08 09:27:27;;;;;;;8.70;4.78;;;;;;;6.86;47.51;102214.84;5072035;28;20479;-60
2022/03/08 09:29:55;;;;;;;8.25;4.38;;;;;;;7.10;48.09;102218.50;5071793;28;20044;-60
2022/03/08 09:32:23;;;;;;;9.27;4.72;;;;;;;7.27;46.56;102210.19;5071783;28;20040;-64
2022/03/08 09:34:52;;;;;;;8.18;4.80;;;;;;;7.23;46.56;102209.41;5071801;28;20808;-59
2022/03/08 09:37:20;;;;;;;11.60;5.30;;;;;;;7.34;46.48;102200.38;5072201;28;20070;-65
2022/03/08 09:39:49;;;;;;;8.48;4.65;;;;;;;7.16;46.14;102201.75;5071988;28;20499;-60
2022/03/08 09:42:17;;;;;;;8.63;4.82;;;;;;;7.10;45.94;102194.97;5070627;28;20480;-65
2022/03/08 09:44:46;;;;;;;9.60;5.10;;;;;;;7.45;45.51;102193.06;5071877;28;20040;-59
2022/03/08 09:47:14;;;;;;;10.93;4.70;;;;;;;7.71;45.25;102192.25;5071622;28;20045;-60
2022/03/08 09:49:42;;;;;;;8.60;4.78;;;;;;;7.64;45.11;102184.66;5071674;28;20051;-59
2022/03/08 09:52:12;;;;;;;10.40;4.85;;;;;;;7.56;44.79;102180.50;5071687;28;20048;-60
2022/03/08 09:54:43;;;;;;;8.95;5.10;;;;;;;7.49;44.57;102186.81;5071692;28;20067;-65
2022/03/08 09:57:13;;;;;;;8.32;4.47;;;;;;;7.84;45.01;102177.00;5071713;28;20098;-60
2022/03/08 09:59:41;;;;;;;8.20;4.55;;;;;;;7.85;44.65;102181.31;5071749;28;20044;-64
2022/03/08 10:02:14;;;;;;;8.45;5.32;;;;;;;7.77;44.41;102181.59;5071574;28;20047;-59
2022/03/08 10:04:42;;;;;;;8.70;5.10;;;;;;;8.15;44.57;102177.75;5071605;28;20052;-62
2022/03/08 10:07:30;;;;;;;9.18;5.05;;;;;;;8.15;43.94;102181.22;5071064;28;20110;-60
2022/03/08 10:09:59;;;;;;;8.68;4.82;;;;;;;7.96;43.66;102165.25;5071097;28;20044;-64
2022/03/08 10:12:28;;;;;;;11.27;4.97;;;;;;;8.31;44.12;102175.47;5071265;28;20140;-59
2022/03/08 10:14:57;;;;;;;8.15;5.07;;;;;;;8.34;43.76;102167.50;5071389;28;20056;-60
2022/03/08 10:17:38;;;;;;;12.65;5.40;;;;;;;8.79;43.53;102156.31;5069829;28;20059;-65
2022/03/08 10:20:08;;;;;;;9.80;5.45;;;;;;;8.88;43.31;102166.47;5071130;28;20044;-64
2022/03/08 10:22:40;;;;;;;10.93;5.18;;;;;;;9.00;42.84;102159.91;5070958;28;20491;-64
2022/03/08 10:25:13;;;;;;;10.77;5.65;;;;;;;9.06;42.89;102158.81;5071367;28;20055;-60
2022/03/08 10:27:45;;;;;;;8.63;4.97;;;;;;;9.35;41.41;102162.09;5071453;28;20037;-59
2022/03/08 10:30:13;;;;;;;13.05;4.97;;;;;;;9.44;41.12;102157.34;5074230;28;20052;-65
2022/03/08 10:33:01;;;;;;;8.60;4.90;;;;;;;9.84;40.45;102152.25;5074983;28;20047;-60
2022/03/08 10:35:31;;;;;;;11.90;5.15;;;;;;;9.94;41.24;102158.00;5074980;28;20045;-64
2022/03/08 10:38:06;;;;;;;10.38;5.15;;;;;;;9.50;39.80;102153.59;5074858;28;20154;-60
2022/03/08 10:40:35;;;;;;;9.20;5.18;;;;;;;9.61;40.38;102153.19;5074839;28;20032;-60
2022/03/08 10:43:05;;;;;;;10.52;5.38;;;;;;;9.53;40.09;102150.88;5074821;28;20053;-65
2022/03/08 10:45:36;;;;;;;9.68;5.10;;;;;;;9.48;39.97;102151.03;5074512;28;20044;-60
2022/03/08 10:48:06;;;;;;;9.63;5.10;;;;;;;10.01;39.06;102143.66;5074661;28;20487;-60
2022/03/08 10:50:36;;;;;;;9.85;5.07;;;;;;;9.80;39.16;102142.78;5074626;28;20050;-59
2022/03/08 10:53:07;;;;;;;12.05;5.03;;;;;;;10.23;38.61;102135.72;5074469;28;20479;-60
2022/03/08 10:55:37;;;;;;;8.65;5.28;;;;;;;10.40;37.75;102136.78;5073222;28;20094;-65
2022/03/08 10:58:07;;;;;;;8.13;4.85;;;;;;;10.40;37.59;102134.16;5074481;28;20041;-60
2022/03/08 11:00:38;;;;;;;7.75;4.72;;;;;;;10.47;37.34;102122.44;5074407;28;20048;-64
2022/03/08 11:03:08;;;;;;;7.53;4.80;;;;;;;10.56;38.09;102127.28;5074280;28;20541;-66
2022/03/08 11:05:39;;;;;;;12.05;5.60;;;;;;;10.57;37.54;102115.84;5072663;28;20098;-63
2022/03/08 11:08:10;;;;;;;11.50;5.20;;;;;;;11.11;36.77;102110.75;5073878;28;20048;-63
2022/03/08 11:10:39;;;;;;;8.25;4.63;;;;;;;11.14;36.04;102115.03;5073748;28;20503;-63
2022/03/08 11:13:08;;;;;;;9.32;5.45;;;;;;;11.50;35.60;102096.56;5073732;28;20044;-63
2022/03/08 11:15:39;;;;;;;7.78;4.32;;;;;;;11.76;35.10;102089.16;5073738;28;20094;-63
2022/03/08 11:18:10;;;;;;;9.45;4.50;;;;;;;11.65;34.00;102081.78;5073817;28;20430;-63
2022/03/08 11:20:40;;;;;;;8.27;4.35;;;;;;;11.52;33.27;102079.84;5073872;28;20055;-63
2022/03/08 11:23:10;;;;;;;10.60;3.78;;;;;;;11.67;32.85;102077.31;5073943;28;20131;-63
2022/03/08 11:25:41;;;;;;;6.88;4.05;;;;;;;11.97;31.98;102076.72;5073908;28;20106;-64
2022/03/08 11:28:19;;;;;;;9.30;4.00;;;;;;;12.03;31.04;102069.44;5073880;28;20051;-63
2022/03/08 11:30:50;;;;;;;9.70;4.07;;;;;;;12.10;31.29;102079.56;5073698;28;20071;-64